createdAt,value
2019-06-15T00:02:32.791Z,16.26
2019-06-15T00:05:38.056Z,16.23
2019-06-15T00:08:43.333Z,16.49
2019-06-15T00:11:48.523Z,16.38
2019-06-15T00:14:53.653Z,16.33
2019-06-15T00:17:58.818Z,16.31
2019-06-15T00:21:04.013Z,16.26
2019-06-15T00:24:09.252Z,16.32
2019-06-15T00:27:14.473Z,16.31
2019-06-15T00:30:20.723Z,16.42
2019-06-15T00:33:25.889Z,16.31
2019-06-15T00:36:31.043Z,16.28
2019-06-15T00:39:36.383Z,16.35
2019-06-15T00:42:41.551Z,16.36
2019-06-15T00:45:46.741Z,16.39
2019-06-15T00:48:51.885Z,16.38
2019-06-15T00:51:57.066Z,16.30
2019-06-15T00:55:02.326Z,16.38
2019-06-15T00:58:07.623Z,16.34
2019-06-15T01:01:12.870Z,16.48
2019-06-15T01:04:18.401Z,16.43
2019-06-15T01:07:23.596Z,16.46
2019-06-15T01:10:28.737Z,16.64
2019-06-15T01:13:33.922Z,16.42
2019-06-15T01:16:39.105Z,16.39
2019-06-15T01:19:44.339Z,16.56
2019-06-15T01:22:49.638Z,16.51
2019-06-15T01:25:54.811Z,16.45
2019-06-15T01:28:59.995Z,16.46
2019-06-15T01:32:05.212Z,16.52
2019-06-15T01:35:10.568Z,16.72
2019-06-15T01:38:15.828Z,16.74
2019-06-15T01:41:20.994Z,16.54
2019-06-15T01:44:26.215Z,16.57
2019-06-15T01:47:31.376Z,16.40
2019-06-15T01:50:36.593Z,16.43
2019-06-15T01:53:41.760Z,16.50
2019-06-15T01:56:46.958Z,16.49
2019-06-15T01:59:52.207Z,16.55
2019-06-15T02:02:57.406Z,16.65
2019-06-15T02:06:02.943Z,16.49
2019-06-15T02:09:08.642Z,16.40
2019-06-15T02:12:13.915Z,16.37
2019-06-15T02:15:19.283Z,16.34
2019-06-15T02:18:24.546Z,16.36
2019-06-15T02:21:29.665Z,16.33
2019-06-15T02:24:34.875Z,16.31
2019-06-15T02:27:40.380Z,16.30
2019-06-15T02:30:45.577Z,16.35
2019-06-15T02:33:50.709Z,16.19
2019-06-15T02:36:55.890Z,16.14
2019-06-15T02:40:01.072Z,16.22
2019-06-15T02:43:06.308Z,16.03
2019-06-15T02:46:11.484Z,16.12
2019-06-15T02:49:16.655Z,15.88
2019-06-15T02:52:21.832Z,15.75
2019-06-15T02:55:27.227Z,15.71
2019-06-15T02:58:32.424Z,15.54
2019-06-15T03:01:37.668Z,15.49
2019-06-15T03:04:42.796Z,15.31
2019-06-15T03:07:48.013Z,15.17
2019-06-15T03:10:53.178Z,15.07
2019-06-15T03:13:59.138Z,14.98
2019-06-15T03:17:04.339Z,14.94
2019-06-15T03:20:10.291Z,14.95
2019-06-15T03:23:15.425Z,15.01
2019-06-15T03:26:20.601Z,15.08
2019-06-15T03:29:25.739Z,15.20
2019-06-15T03:32:30.953Z,15.20
2019-06-15T03:35:36.094Z,15.22
2019-06-15T03:38:41.333Z,15.28
2019-06-15T03:41:46.555Z,15.37
2019-06-15T03:44:51.746Z,15.47
2019-06-15T03:47:56.910Z,15.57
2019-06-15T03:51:02.105Z,15.68
2019-06-15T03:54:07.254Z,15.83
2019-06-15T03:57:12.443Z,15.91
2019-06-15T04:00:47.223Z,16.06
2019-06-15T04:03:52.420Z,16.05
2019-06-15T04:06:57.588Z,16.16
2019-06-15T04:10:02.772Z,16.30
2019-06-15T04:13:08.023Z,16.56
2019-06-15T04:16:13.179Z,16.66
2019-06-15T04:19:18.374Z,16.66
2019-06-15T04:22:23.580Z,16.81
2019-06-15T04:25:28.736Z,16.97
2019-06-15T04:28:33.941Z,17.11
2019-06-15T04:31:40.059Z,17.22
2019-06-15T04:34:45.458Z,16.90
2019-06-15T04:37:51.705Z,16.90
2019-06-15T04:40:56.872Z,17.12
2019-06-15T04:44:02.031Z,17.70
2019-06-15T04:47:07.401Z,18.15
2019-06-15T04:50:12.615Z,18.41
2019-06-15T04:53:17.812Z,18.66
2019-06-15T04:56:23.016Z,18.16
2019-06-15T04:59:28.273Z,18.13
2019-06-15T05:02:33.441Z,18.20
2019-06-15T05:05:38.670Z,18.68
2019-06-15T05:08:43.798Z,19.51
2019-06-15T05:11:48.981Z,19.49
2019-06-15T05:14:54.115Z,19.30
2019-06-15T05:17:59.301Z,19.25
2019-06-15T05:21:04.598Z,20.52
2019-06-15T05:24:09.758Z,21.06
2019-06-15T05:27:14.978Z,21.83
2019-06-15T05:30:21.623Z,21.88
2019-06-15T05:33:26.863Z,22.48
2019-06-15T05:36:32.046Z,21.97
2019-06-15T05:39:37.296Z,21.89
2019-06-15T05:42:42.478Z,21.46
2019-06-15T05:45:47.723Z,22.10
2019-06-15T05:48:52.951Z,22.83
2019-06-15T05:51:58.147Z,23.51
2019-06-15T05:55:03.389Z,23.62
2019-06-15T05:58:08.525Z,24.27
2019-06-15T06:01:14.458Z,24.30
2019-06-15T06:04:19.617Z,23.87
2019-06-15T06:07:24.892Z,25.02
2019-06-15T06:10:30.159Z,24.58
2019-06-15T06:13:35.359Z,24.69
2019-06-15T06:16:43.467Z,23.62
2019-06-15T06:19:48.632Z,24.74
2019-06-15T06:22:53.801Z,24.43
2019-06-15T06:25:58.956Z,25.63
2019-06-15T06:29:04.332Z,25.15
2019-06-15T06:32:09.531Z,24.74
2019-06-15T06:35:14.745Z,25.52
2019-06-15T06:38:19.897Z,24.98
2019-06-15T06:41:25.055Z,24.65
2019-06-15T06:44:30.310Z,25.02
2019-06-15T06:47:35.495Z,24.53
2019-06-15T06:50:41.401Z,24.58
2019-06-15T06:53:46.603Z,25.53
2019-06-15T06:56:51.821Z,25.38
2019-06-15T06:59:57.095Z,25.35
2019-06-15T07:03:02.364Z,25.27
2019-06-15T07:06:07.534Z,24.87
2019-06-15T07:09:12.774Z,23.93
2019-06-15T07:12:17.931Z,23.27
2019-06-15T07:15:24.132Z,23.68
2019-06-15T07:18:29.411Z,24.10
2019-06-15T07:21:34.551Z,23.78
2019-06-15T07:24:39.783Z,23.43
2019-06-15T07:27:44.986Z,23.17
2019-06-15T07:30:50.216Z,23.67
2019-06-15T07:33:55.381Z,23.22
2019-06-15T07:37:01.656Z,22.95
2019-06-15T07:40:08.404Z,23.26
2019-06-15T07:43:13.557Z,23.56
2019-06-15T07:46:18.703Z,23.89
2019-06-15T07:49:24.051Z,24.42
2019-06-15T07:52:29.315Z,25.26
2019-06-15T07:55:35.459Z,24.48
2019-06-15T07:58:40.600Z,24.15
2019-06-15T08:01:48.123Z,24.11
2019-06-15T08:04:53.424Z,23.88
2019-06-15T08:07:58.698Z,24.12
2019-06-15T08:11:03.996Z,24.53
2019-06-15T08:14:09.377Z,24.21
2019-06-15T08:17:14.574Z,24.43
2019-06-15T08:20:23.141Z,24.86
2019-06-15T08:23:29.353Z,23.75
2019-06-15T08:26:34.575Z,23.99
2019-06-15T08:29:39.736Z,24.26
2019-06-15T08:32:44.905Z,24.29
2019-06-15T08:35:50.073Z,23.76
2019-06-15T08:38:55.268Z,23.97
2019-06-15T08:42:00.414Z,23.67
2019-06-15T08:45:05.973Z,24.71
2019-06-15T08:48:11.512Z,24.75
2019-06-15T08:51:16.922Z,24.64
2019-06-15T08:54:22.201Z,24.55
2019-06-15T08:57:27.388Z,24.10
2019-06-15T09:00:32.611Z,23.89
2019-06-15T09:03:37.890Z,23.93
2019-06-15T09:06:43.162Z,24.68
2019-06-15T09:09:48.372Z,25.78
2019-06-15T09:12:53.568Z,25.80
2019-06-15T09:15:58.790Z,24.90
2019-06-15T09:19:03.987Z,24.80
2019-06-15T09:22:09.177Z,24.96
2019-06-15T09:25:14.337Z,24.93
2019-06-15T09:28:19.599Z,24.55
2019-06-15T09:31:24.757Z,24.48
2019-06-15T09:34:29.917Z,24.78
2019-06-15T09:37:35.117Z,24.63
2019-06-15T09:40:40.310Z,24.74
2019-06-15T09:43:45.480Z,24.60
2019-06-15T09:46:50.718Z,24.50
2019-06-15T09:49:55.892Z,24.35
2019-06-15T09:53:01.095Z,24.20
2019-06-15T09:56:06.353Z,24.50
2019-06-15T09:59:25.351Z,24.97
2019-06-15T10:02:18.489Z,25.52
2019-06-15T10:05:24.763Z,26.21
2019-06-15T10:08:30.072Z,26.39
2019-06-15T10:11:35.263Z,26.74
2019-06-15T10:14:40.427Z,25.68
2019-06-15T10:17:45.680Z,25.43
2019-06-15T10:20:50.875Z,25.36
2019-06-15T10:23:56.113Z,25.06
2019-06-15T10:27:01.393Z,25.38
2019-06-15T10:30:07.504Z,25.35
2019-06-15T10:33:12.697Z,24.76
2019-06-15T10:36:17.932Z,24.33
2019-06-15T10:39:23.250Z,24.51
2019-06-15T10:42:28.476Z,24.57
2019-06-15T10:45:34.017Z,24.52
2019-06-15T10:48:39.149Z,24.41
2019-06-15T10:51:44.458Z,24.06
2019-06-15T10:54:49.671Z,24.69
2019-06-15T10:57:54.867Z,25.26
2019-06-15T11:01:00.002Z,25.94
2019-06-15T11:04:05.213Z,25.81
2019-06-15T11:07:10.352Z,25.68
2019-06-15T11:10:17.560Z,25.64
2019-06-15T11:13:22.718Z,25.74
2019-06-15T11:16:28.053Z,25.75
2019-06-15T11:19:33.247Z,26.38
2019-06-15T11:22:38.363Z,26.68
2019-06-15T11:25:43.585Z,26.49
2019-06-15T11:28:48.764Z,26.55
2019-06-15T11:31:53.896Z,26.63
2019-06-15T11:34:59.094Z,26.60
2019-06-15T11:38:04.304Z,26.35
2019-06-15T11:41:09.479Z,26.64
2019-06-15T11:44:14.646Z,27.60
2019-06-15T11:47:19.805Z,27.47
2019-06-15T11:50:25.040Z,26.55
2019-06-15T11:53:30.217Z,26.67
2019-06-15T11:56:35.414Z,26.66
2019-06-15T11:59:40.659Z,26.53
2019-06-15T12:02:45.757Z,27.59
2019-06-15T12:05:51.049Z,28.03
2019-06-15T12:08:56.162Z,26.89
2019-06-15T12:12:01.355Z,27.16
2019-06-15T12:15:06.786Z,27.58
2019-06-15T12:18:11.990Z,26.81
2019-06-15T12:21:17.145Z,27.17
2019-06-15T12:24:22.343Z,26.66
2019-06-15T12:27:27.625Z,26.92
2019-06-15T12:30:47.114Z,26.36
2019-06-15T12:33:49.253Z,26.29
2019-06-15T12:36:54.498Z,26.08
2019-06-15T12:39:59.655Z,26.53
2019-06-15T12:43:04.750Z,26.39
2019-06-15T12:46:09.998Z,25.74
2019-06-15T12:49:15.162Z,25.85
2019-06-15T12:52:20.367Z,25.78
2019-06-15T12:55:25.566Z,25.93
2019-06-15T12:58:30.815Z,25.47
2019-06-15T13:01:36.016Z,26.00
2019-06-15T13:04:41.211Z,25.64
2019-06-15T13:07:46.428Z,25.86
2019-06-15T13:10:51.578Z,25.66
2019-06-15T13:13:57.727Z,25.68
2019-06-15T13:17:02.902Z,25.60
2019-06-15T13:20:08.799Z,25.38
2019-06-15T13:23:13.983Z,25.90
2019-06-15T13:26:19.239Z,26.04
2019-06-15T13:29:24.374Z,26.47
2019-06-15T13:32:29.703Z,26.37
2019-06-15T13:35:35.898Z,26.41
2019-06-15T13:38:41.094Z,26.27
2019-06-15T13:41:46.252Z,26.29
2019-06-15T13:44:51.451Z,26.48
2019-06-15T13:47:56.693Z,27.39
2019-06-15T13:51:01.876Z,26.96
2019-06-15T13:54:07.163Z,26.43
2019-06-15T13:57:13.389Z,27.34
2019-06-15T14:00:18.597Z,27.24
2019-06-15T14:03:23.791Z,27.84
2019-06-15T14:06:29.057Z,28.14
2019-06-15T14:09:34.260Z,28.04
2019-06-15T14:12:40.562Z,28.22
2019-06-15T14:15:45.686Z,27.97
2019-06-15T14:18:50.843Z,28.74
2019-06-15T14:21:55.993Z,27.67
2019-06-15T14:25:01.208Z,27.66
2019-06-15T14:28:06.544Z,27.15
2019-06-15T14:31:11.699Z,27.12
2019-06-15T14:34:16.868Z,27.67
2019-06-15T14:37:22.061Z,27.72
2019-06-15T14:40:27.308Z,26.93
2019-06-15T14:43:32.535Z,26.65
2019-06-15T14:46:37.731Z,26.25
2019-06-15T14:49:45.701Z,25.79
2019-06-15T14:52:50.894Z,26.28
2019-06-15T14:55:56.603Z,25.78
2019-06-15T14:59:01.854Z,26.24
2019-06-15T15:02:13.872Z,26.12
2019-06-15T15:05:17.662Z,25.85
2019-06-15T15:08:21.723Z,26.35
2019-06-15T15:11:26.880Z,25.56
2019-06-15T15:14:32.114Z,26.15
2019-06-15T15:17:37.421Z,25.99
2019-06-15T15:20:42.586Z,25.96
2019-06-15T15:23:47.816Z,25.72
2019-06-15T15:26:52.986Z,25.91
2019-06-15T15:29:58.215Z,26.24
2019-06-15T15:33:06.556Z,26.71
2019-06-15T15:36:10.368Z,26.99
2019-06-15T15:39:16.675Z,27.28
2019-06-15T15:42:22.000Z,26.39
2019-06-15T15:45:27.260Z,26.42
2019-06-15T15:48:32.461Z,26.18
2019-06-15T15:51:37.601Z,26.53
2019-06-15T15:54:42.856Z,26.32
2019-06-15T15:57:48.926Z,26.52
2019-06-15T16:00:54.192Z,26.35
2019-06-15T16:03:59.345Z,26.94
2019-06-15T16:07:06.620Z,27.40
2019-06-15T16:10:11.716Z,27.35
2019-06-15T16:13:16.965Z,27.27
2019-06-15T16:16:22.148Z,27.58
2019-06-15T16:19:27.448Z,27.11
2019-06-15T16:22:32.738Z,27.32
2019-06-15T16:25:37.886Z,27.14
2019-06-15T16:28:43.086Z,26.11
2019-06-15T16:31:48.255Z,26.35
2019-06-15T16:34:53.488Z,26.77
2019-06-15T16:37:58.708Z,27.70
2019-06-15T16:41:03.934Z,27.49
2019-06-15T16:44:09.153Z,26.92
2019-06-15T16:47:16.589Z,27.28
2019-06-15T16:50:21.261Z,27.51
2019-06-15T16:53:26.558Z,28.03
2019-06-15T16:56:31.771Z,28.74
2019-06-15T16:59:36.982Z,28.66
2019-06-15T17:02:42.228Z,28.80
2019-06-15T17:05:47.523Z,28.49
2019-06-15T17:08:52.734Z,29.00
2019-06-15T17:11:57.892Z,27.98
2019-06-15T17:15:03.184Z,28.59
2019-06-15T17:18:08.829Z,28.13
2019-06-15T17:21:14.051Z,28.69
2019-06-15T17:24:19.268Z,28.76
2019-06-15T17:27:26.232Z,28.63
2019-06-15T17:30:31.726Z,28.65
2019-06-15T17:33:38.423Z,28.50
2019-06-15T17:36:43.928Z,27.56
2019-06-15T17:39:49.155Z,27.46
2019-06-15T17:42:57.564Z,28.30
2019-06-15T17:46:08.220Z,29.11
2019-06-15T17:49:17.906Z,29.66
2019-06-15T17:52:26.421Z,30.39
2019-06-15T17:55:32.008Z,28.38
2019-06-15T17:58:37.289Z,26.75
2019-06-15T18:01:42.529Z,26.59
2019-06-15T18:04:47.696Z,25.98
2019-06-15T18:07:53.999Z,24.96
2019-06-15T18:10:59.168Z,24.67
2019-06-15T18:14:05.990Z,24.42
2019-06-15T18:17:11.241Z,23.93
2019-06-15T18:20:18.147Z,23.80
2019-06-15T18:23:23.299Z,23.56
2019-06-15T18:26:28.433Z,23.23
2019-06-15T18:29:33.606Z,23.08
2019-06-15T18:32:38.816Z,22.85
2019-06-15T18:35:44.027Z,23.32
2019-06-15T18:38:49.225Z,23.36
2019-06-15T18:41:55.972Z,23.16
2019-06-15T18:45:01.501Z,23.09
2019-06-15T18:48:06.695Z,22.89
2019-06-15T18:51:11.958Z,22.77
2019-06-15T18:54:17.215Z,22.39
2019-06-15T18:57:22.408Z,21.89
2019-06-15T19:00:27.602Z,21.60
2019-06-15T19:03:32.814Z,21.37
2019-06-15T19:06:38.041Z,21.16
2019-06-15T19:09:43.303Z,20.93
2019-06-15T19:12:48.545Z,20.97
2019-06-15T19:15:57.026Z,20.82
2019-06-15T19:19:01.710Z,20.65
2019-06-15T19:22:06.857Z,20.48
2019-06-15T19:25:12.802Z,20.44
2019-06-15T19:28:18.021Z,20.56
2019-06-15T19:31:23.394Z,20.42
2019-06-15T19:34:43.263Z,20.31
2019-06-15T19:37:37.069Z,20.23
2019-06-15T19:40:42.461Z,20.16
2019-06-15T19:43:47.680Z,20.03
2019-06-15T19:46:52.949Z,19.89
2019-06-15T19:49:58.209Z,19.90
2019-06-15T19:53:03.401Z,19.83
2019-06-15T19:56:08.738Z,19.70
2019-06-15T19:59:13.812Z,19.80
2019-06-15T20:02:19.162Z,19.65
2019-06-15T20:05:26.026Z,19.54
2019-06-15T20:08:31.327Z,19.41
2019-06-15T20:11:36.872Z,19.44
2019-06-15T20:14:42.094Z,19.44
2019-06-15T20:17:47.267Z,19.71
2019-06-15T20:20:52.691Z,19.89
2019-06-15T20:23:57.934Z,19.94
2019-06-15T20:27:03.122Z,19.84
2019-06-15T20:30:10.081Z,19.80
2019-06-15T20:33:16.594Z,19.78
2019-06-15T20:36:21.960Z,20.18
2019-06-15T20:39:30.274Z,19.56
2019-06-15T20:42:36.678Z,19.28
2019-06-15T20:45:42.102Z,19.02
2019-06-15T20:48:47.225Z,18.77
2019-06-15T20:51:52.513Z,18.61
2019-06-15T20:54:57.775Z,18.45
2019-06-15T20:58:03.069Z,18.39
2019-06-15T21:01:08.443Z,18.35
2019-06-15T21:04:16.031Z,18.43
2019-06-15T21:07:20.796Z,18.49
2019-06-15T21:10:26.497Z,18.49
2019-06-15T21:13:31.979Z,18.53
2019-06-15T21:16:37.192Z,18.40
2019-06-15T21:19:42.410Z,18.40
2019-06-15T21:22:47.585Z,18.31
2019-06-15T21:25:52.752Z,18.15
2019-06-15T21:28:57.938Z,18.11
2019-06-15T21:32:03.115Z,18.09
2019-06-15T21:35:08.630Z,17.80
2019-06-15T21:38:13.718Z,17.80
2019-06-15T21:41:19.058Z,17.56
2019-06-15T21:44:26.403Z,17.73
2019-06-15T21:47:31.203Z,17.79
2019-06-15T21:50:36.537Z,17.72
2019-06-15T21:53:41.857Z,17.54
2019-06-15T21:56:47.135Z,17.34
2019-06-15T21:59:52.280Z,17.19
2019-06-15T22:02:57.503Z,17.00
2019-06-15T22:06:03.555Z,16.86
2019-06-15T22:09:20.262Z,16.75
2019-06-15T22:12:22.688Z,16.81
2019-06-15T22:15:27.914Z,16.86
2019-06-15T22:18:33.106Z,16.83
2019-06-15T22:21:38.839Z,16.79
2019-06-15T22:24:44.031Z,16.75
2019-06-15T22:27:49.216Z,16.68
2019-06-15T22:30:56.991Z,16.54
2019-06-15T22:34:01.296Z,16.53
2019-06-15T22:37:07.038Z,16.41
2019-06-15T22:40:12.514Z,16.36
2019-06-15T22:43:17.662Z,16.51
2019-06-15T22:46:22.891Z,16.48
2019-06-15T22:49:29.050Z,16.44
2019-06-15T22:52:36.441Z,16.43
2019-06-15T22:55:42.022Z,16.33
2019-06-15T22:58:47.182Z,16.28
2019-06-15T23:01:52.522Z,16.25
2019-06-15T23:04:57.704Z,16.41
2019-06-15T23:08:02.857Z,16.55
2019-06-15T23:11:08.003Z,16.40
2019-06-15T23:14:13.211Z,16.33
2019-06-15T23:17:18.343Z,16.32
2019-06-15T23:20:26.829Z,16.32
2019-06-15T23:23:30.479Z,16.40
2019-06-15T23:26:36.851Z,16.48
2019-06-15T23:29:46.090Z,16.52
2019-06-15T23:32:50.425Z,16.57
2019-06-15T23:36:01.011Z,16.50
2019-06-15T23:39:07.775Z,16.39
2019-06-15T23:42:13.146Z,16.33
2019-06-15T23:45:18.966Z,16.33
2019-06-15T23:48:26.492Z,16.42
2019-06-15T23:51:31.411Z,16.49
2019-06-15T23:54:37.050Z,16.45
2019-06-15T23:57:42.248Z,16.57
